ADDS METAR Data INFO
IDs: Format: Raw Decoded Include TAF

Data at: 2252 UTC 22 Jun 2018

KNQA 222250Z 27008KT 10SM FEW043 SCT250 29/19 A2975
KNQA 222150Z 24007KT 10SM SCT043 SCT250 29/20 A2976
KNQA 222050Z 28009KT 10SM SCT042 SCT250 29/19 A2977
KNQA 221950Z 25012KT 10SM SCT044 SCT250 29/19 A2977
KNQA 221850Z 28010KT 10SM SCT039 SCT150 28/19 A2978
KNQA 221750Z 27009KT 10SM SCT037 SCT150 28/20 A2980
KNQA 221650Z 26009KT 10SM SCT032 SCT150 27/19 A2980
KNQA 221550Z 26008KT 10SM SCT032 SCT150 26/19 A2980
KNQA 221450Z 30008KT 10SM FEW040 SCT150 25/19 A2979
KNQA 221350Z 27009KT 10SM SCT095 BKN150 24/20 A2979
KNQA 221250Z 25006KT 10SM BKN090 BKN150 23/20 A2978
KNQA 221150Z 22004KT 10SM BKN090 BKN120 22/20 A2977
KNQA 221050Z 19004KT 10SM OVC100 21/21 A2976
KNQA 221035Z AUTO 16004KT 10SM OVC110 21/21 A2976 RMK A01
KNQA 221015Z AUTO 00000KT 10SM OVC095 21/21 A2976 RMK A01
KNQA 220955Z AUTO 14003KT 10SM BKN095 OVC110 21/21 A2975 RMK A01
KNQA 220935Z AUTO 00000KT 10SM BKN100 OVC120 21/20 A2975 RMK A01
KNQA 220915Z AUTO 00000KT 10SM BKN095 BKN120 21/20 A2975 RMK A01
KNQA 220855Z AUTO 00000KT 10SM FEW095 21/20 A2975 RMK A01
KNQA 220835Z AUTO 00000KT 10SM CLR 21/20 A2975 RMK A01
KNQA 220815Z AUTO 14003KT 10SM CLR 21/20 A2975 RMK A01
KNQA 220755Z AUTO 00000KT 10SM BKN100 21/20 A2975 RMK A01
KNQA 220735Z AUTO 14003KT 10SM BKN100 21/20 A2974 RMK A01
KNQA 220715Z AUTO 00000KT 10SM FEW100 21/20 A2975 RMK A01
KNQA 220655Z 00000KT 10SM FEW100 21/20 A2975 RMK A01
KNQA 220550Z 14003KT 10SM SCT100 20/20 A2977
KNQA 220450Z 14003KT 10SM SCT095 21/20 A2978
KNQA 220350Z 00000KT 10SM BKN075 OVC090 21/20 A2978
KNQA 220250Z 16003KT 6SM BR BKN070 OVC100 21/20 A2978
KNQA 220150Z 17006KT 2SM RA BR SCT003 BKN030 OVC050 22/21 A2977
KNQA 220108Z 25003KT 2SM RA BR BKN004 BKN031 OVC050 23/22 A2977
KNQA 220050Z 15005KT 5SM -RA BKN040 OVC049 23/22 A2975
KNQA 212350Z 24003KT 5SM -RA BKN045 BKN070 OVC120 22/21 A2975
KNQA 212250Z 11003KT 5SM -RA BR SCT042 BKN075 22/21 A2975
KNQA 212150Z 31009KT 3SM -RA BR SCT002 BKN044 22/20 A2978
KNQA 212139Z 32031G40KT 1SM RA BR BKN002 OVC042 28/21 A2980
KNQA 212050Z 24011KT 10SM SCT035 BKN044 BKN250 31/22 A2974
KNQA 211950Z 24011KT 10SM SCT035 BKN044 BKN250 31/22 A2977
KNQA 211850Z 26011KT 10SM SCT031 BKN039 30/22 A2980
KNQA 211750Z 23010KT 10SM SCT026 BKN033 28/22 A2982
KNQA 211650Z 25009KT 10SM SCT022 BKN036 28/22 A2983
KNQA 211550Z 26010KT 10SM BKN016 OVC030 26/22 A2984
KNQA 211450Z 25007KT 10SM BKN014 OVC019 25/23 A2984
KNQA 211410Z 26011KT 10SM SCT009 BKN014 BKN037 24/23 A2984
KNQA 211350Z 25010KT 7SM BKN009 OVC038 24/23 A2985
KNQA 211250Z 24008KT 5SM BR OVC005 22/22 A2986
KNQA 211150Z 17003KT 4SM -RA BR BKN006 OVC009 22/21 A2985